createdAt,value
2024-03-02T00:02:18.263Z,31.33
2024-03-02T00:04:48.468Z,33.25
2024-03-02T00:07:20.045Z,31.92
2024-03-02T00:09:49.343Z,35.03
2024-03-02T00:12:18.843Z,34.72
2024-03-02T00:14:48.113Z,37.53
2024-03-02T00:17:28.091Z,38.55
2024-03-02T00:19:57.410Z,35.47
2024-03-02T00:22:29.336Z,34.22
2024-03-02T00:24:58.591Z,33.05
2024-03-02T00:27:28.506Z,33.90
2024-03-02T00:29:58.178Z,32.00
2024-03-02T00:32:29.758Z,34.97
2024-03-02T00:34:58.946Z,33.53
2024-03-02T00:37:30.627Z,32.72
2024-03-02T00:39:59.889Z,31.23
2024-03-02T00:42:29.332Z,29.17
2024-03-02T00:44:58.541Z,32.15
2024-03-02T00:47:27.777Z,32.10
2024-03-02T00:49:56.983Z,32.95
2024-03-02T00:52:28.898Z,30.08
2024-03-02T00:55:00.305Z,33.90
2024-03-02T00:57:33.199Z,29.17
2024-03-02T01:00:02.713Z,32.53
2024-03-02T01:02:32.301Z,29.13
2024-03-02T01:05:01.659Z,31.15
2024-03-02T01:07:33.129Z,35.35
2024-03-02T01:10:02.872Z,36.35
2024-03-02T01:12:32.243Z,31.65
2024-03-02T01:15:01.771Z,35.20
2024-03-02T01:17:32.154Z,37.50
2024-03-02T01:20:01.607Z,31.33
2024-03-02T01:22:30.948Z,32.15
2024-03-02T01:25:01.652Z,28.95
2024-03-02T01:27:32.249Z,33.13
2024-03-02T01:30:01.503Z,30.45
2024-03-02T01:32:31.601Z,32.90
2024-03-02T01:35:00.790Z,32.33
2024-03-02T01:37:29.981Z,32.88
2024-03-02T01:40:00.795Z,34.65
2024-03-02T01:42:32.168Z,34.17
2024-03-02T01:45:01.590Z,32.85
2024-03-02T01:47:31.910Z,33.38
2024-03-02T01:50:03.117Z,35.95
2024-03-02T01:52:32.460Z,38.55
2024-03-02T01:55:03.289Z,38.50
2024-03-02T01:57:32.991Z,32.65
2024-03-02T02:00:02.935Z,38.90
2024-03-02T02:02:41.005Z,39.70
2024-03-02T02:05:10.640Z,39.33
2024-03-02T02:07:40.017Z,35.72
2024-03-02T02:10:11.600Z,35.05
2024-03-02T02:12:41.183Z,33.75
2024-03-02T02:15:28.174Z,30.60
2024-03-02T02:17:57.950Z,39.13
2024-03-02T02:20:47.153Z,39.10
2024-03-02T02:23:17.824Z,38.35
2024-03-02T02:25:47.178Z,36.80
2024-03-02T02:28:16.381Z,34.88
2024-03-02T02:30:45.750Z,35.05
2024-03-02T02:33:15.137Z,35.10
2024-03-02T02:35:44.588Z,35.72
2024-03-02T02:38:13.786Z,34.53
2024-03-02T02:40:44.447Z,40.50
2024-03-02T02:43:13.978Z,34.90
2024-03-02T02:45:43.341Z,36.33
2024-03-02T02:48:12.776Z,34.83
2024-03-02T02:50:41.987Z,38.00
2024-03-02T02:53:12.000Z,36.15
2024-03-02T02:55:44.973Z,34.13
2024-03-02T02:58:14.277Z,35.22
2024-03-02T03:00:43.483Z,36.45
2024-03-02T03:03:12.704Z,30.75
2024-03-02T03:05:41.910Z,33.22
2024-03-02T03:08:11.145Z,38.45
2024-03-02T03:10:40.395Z,61.67
2024-03-02T03:13:11.373Z,56.15
2024-03-02T03:15:40.746Z,54.63
2024-03-02T03:18:11.886Z,57.72
2024-03-02T03:20:41.230Z,61.05
2024-03-02T03:23:10.441Z,55.72
2024-03-02T03:25:39.646Z,48.05
2024-03-02T03:28:11.211Z,42.70
2024-03-02T03:30:40.654Z,44.47
2024-03-02T03:33:09.921Z,40.22
2024-03-02T03:35:39.910Z,48.80
2024-03-02T03:38:09.133Z,37.20
2024-03-02T03:40:38.433Z,39.00
2024-03-02T03:43:07.808Z,36.97
2024-03-02T03:45:38.763Z,40.20
2024-03-02T03:48:08.568Z,40.70
2024-03-02T03:50:39.232Z,36.90
2024-03-02T03:53:08.542Z,46.28
2024-03-02T03:55:37.783Z,38.13
2024-03-02T03:58:07.205Z,35.00
2024-03-02T04:00:38.022Z,34.05
2024-03-02T04:03:07.717Z,40.40
2024-03-02T04:05:37.133Z,44.15
2024-03-02T04:08:06.963Z,45.28
2024-03-02T04:10:36.625Z,42.05
2024-03-02T04:13:06.290Z,45.95
2024-03-02T04:15:35.872Z,43.35
2024-03-02T04:18:07.244Z,34.50
2024-03-02T04:20:36.672Z,38.83
2024-03-02T04:23:06.503Z,37.17
2024-03-02T04:25:35.873Z,37.17
2024-03-02T04:28:05.281Z,40.08
2024-03-02T04:30:35.093Z,41.63
2024-03-02T04:33:07.139Z,48.10
2024-03-02T04:35:36.410Z,43.63
2024-03-02T04:38:05.911Z,39.67
2024-03-02T04:40:35.180Z,42.35
2024-03-02T04:43:05.049Z,43.28
2024-03-02T04:45:34.514Z,43.08
2024-03-02T04:48:03.962Z,39.05
2024-03-02T04:50:35.779Z,43.15
2024-03-02T04:53:05.191Z,45.63
2024-03-02T04:55:51.787Z,45.13
2024-03-02T04:58:21.025Z,41.50
2024-03-02T05:00:50.281Z,44.63
2024-03-02T05:03:19.762Z,41.85
2024-03-02T05:05:50.429Z,42.13
2024-03-02T05:08:19.691Z,37.47
2024-03-02T05:10:48.886Z,39.20
2024-03-02T05:13:18.903Z,40.97
2024-03-02T05:15:48.313Z,41.17
2024-03-02T05:18:17.629Z,38.35
2024-03-02T05:20:47.044Z,56.78
2024-03-02T05:23:18.347Z,47.08
2024-03-02T05:25:47.698Z,38.38
2024-03-02T05:28:16.907Z,40.80
2024-03-02T05:30:46.351Z,34.50
2024-03-02T05:33:37.579Z,39.10
2024-03-02T05:36:07.607Z,41.47
2024-03-02T05:38:39.749Z,40.47
2024-03-02T05:41:09.012Z,41.57
2024-03-02T05:43:38.833Z,45.75
2024-03-02T05:46:08.310Z,85.65
2024-03-02T05:48:37.639Z,62.42
2024-03-02T05:51:07.196Z,64.93
2024-03-02T05:53:39.474Z,46.95
2024-03-02T05:56:10.281Z,47.05
2024-03-02T05:58:54.989Z,43.35
2024-03-02T06:01:29.769Z,41.30
2024-03-02T06:04:00.222Z,38.17
2024-03-02T06:06:29.823Z,32.30
2024-03-02T06:08:59.993Z,46.88
2024-03-02T06:11:30.732Z,45.00
2024-03-02T06:13:59.932Z,42.75
2024-03-02T06:16:29.147Z,37.42
2024-03-02T06:18:59.195Z,36.85
2024-03-02T06:21:32.131Z,38.30
2024-03-02T06:24:02.550Z,36.85
2024-03-02T06:26:33.294Z,38.78
2024-03-02T06:29:03.697Z,38.05
2024-03-02T06:31:33.110Z,35.72
2024-03-02T06:34:02.557Z,38.28
2024-03-02T06:36:31.870Z,35.83
2024-03-02T06:39:01.177Z,37.88
2024-03-02T06:41:30.496Z,34.92
2024-03-02T06:44:01.877Z,35.45
2024-03-02T06:46:31.248Z,35.58
2024-03-02T06:49:00.734Z,37.97
2024-03-02T06:51:30.210Z,38.00
2024-03-02T06:53:59.520Z,37.60
2024-03-02T06:56:28.651Z,37.22
2024-03-02T06:58:57.857Z,38.30
2024-03-02T07:01:29.455Z,34.75
2024-03-02T07:03:58.907Z,40.08
2024-03-02T07:06:28.363Z,38.65
2024-03-02T07:08:57.649Z,39.03
2024-03-02T07:11:26.914Z,41.30
2024-03-02T07:13:56.214Z,37.80
2024-03-02T07:16:29.501Z,38.67
2024-03-02T07:19:00.549Z,39.67
2024-03-02T07:21:30.777Z,37.97
2024-03-02T07:24:00.718Z,39.72
2024-03-02T07:29:02.335Z,35.05
2024-03-02T07:31:31.613Z,34.42
2024-03-02T07:34:03.351Z,35.78
2024-03-02T07:36:32.810Z,32.85
2024-03-02T07:39:02.133Z,36.17
2024-03-02T07:41:31.560Z,33.28
2024-03-02T07:44:01.044Z,35.35
2024-03-02T07:46:30.491Z,34.08
2024-03-02T07:49:00.120Z,31.48
2024-03-02T07:51:31.044Z,36.15
2024-03-02T07:54:00.554Z,32.63
2024-03-02T07:56:30.150Z,37.05
2024-03-02T07:59:02.501Z,36.05
2024-03-02T08:01:32.457Z,38.10
2024-03-02T08:04:02.771Z,35.05
2024-03-02T08:06:33.970Z,33.40
2024-03-02T08:09:06.043Z,35.50
2024-03-02T08:11:36.459Z,33.42
2024-03-02T08:14:05.935Z,32.65
2024-03-02T08:16:35.553Z,37.55
2024-03-02T08:19:05.258Z,35.20
2024-03-02T08:21:36.782Z,37.22
2024-03-02T08:24:07.296Z,39.88
2024-03-02T08:26:36.753Z,34.28
2024-03-02T08:29:06.192Z,42.38
2024-03-02T08:31:37.579Z,43.28
2024-03-02T08:34:08.102Z,34.05
2024-03-02T08:36:39.569Z,33.35
2024-03-02T08:39:16.760Z,38.10
2024-03-02T08:41:48.639Z,34.47
2024-03-02T08:44:18.655Z,33.40
2024-03-02T08:46:47.992Z,29.23
2024-03-02T08:49:17.721Z,29.25
2024-03-02T08:51:56.573Z,28.75
2024-03-02T08:54:26.354Z,30.38
2024-03-02T08:56:55.854Z,36.28
2024-03-02T08:59:26.510Z,27.98
2024-03-02T09:01:56.473Z,31.10
2024-03-02T09:04:27.492Z,28.00
2024-03-02T09:06:59.228Z,26.73
2024-03-02T09:09:28.826Z,29.77
2024-03-02T09:11:59.299Z,27.80
2024-03-02T09:14:28.862Z,31.58
2024-03-02T09:16:58.316Z,29.52
2024-03-02T09:19:27.749Z,28.85
2024-03-02T09:22:00.285Z,29.08
2024-03-02T09:24:29.841Z,29.98
2024-03-02T09:26:59.285Z,28.80
2024-03-02T09:29:29.891Z,30.38
2024-03-02T09:31:59.397Z,31.85
2024-03-02T09:34:28.706Z,32.92
2024-03-02T09:36:59.878Z,28.83
2024-03-02T09:39:29.348Z,28.48
2024-03-02T09:41:59.104Z,29.95
2024-03-02T09:44:28.905Z,30.35
2024-03-02T09:46:58.519Z,30.48
2024-03-02T09:49:28.199Z,26.52
2024-03-02T09:51:59.665Z,29.40
2024-03-02T09:54:30.141Z,28.90
2024-03-02T09:56:59.580Z,30.25
2024-03-02T09:59:29.475Z,30.35
2024-03-02T10:02:01.281Z,28.58
2024-03-02T10:04:32.305Z,30.10
2024-03-02T10:07:16.770Z,29.27
2024-03-02T10:09:47.781Z,28.65
2024-03-02T10:12:20.300Z,28.23
2024-03-02T10:14:52.895Z,29.45
2024-03-02T10:17:22.302Z,28.20
2024-03-02T10:19:51.635Z,30.67
2024-03-02T10:22:28.054Z,30.88
2024-03-02T10:24:59.440Z,25.90
2024-03-02T10:27:31.345Z,28.95
2024-03-02T10:30:03.520Z,28.80
2024-03-02T10:32:32.817Z,30.37
2024-03-02T10:35:02.528Z,31.67
2024-03-02T10:37:35.213Z,27.98
2024-03-02T10:40:09.708Z,29.17
2024-03-02T10:42:40.688Z,27.48
2024-03-02T10:45:12.211Z,25.73
2024-03-02T10:47:42.004Z,27.77
2024-03-02T10:50:11.566Z,29.95
2024-03-02T10:52:42.648Z,28.42
2024-03-02T10:55:13.895Z,26.65
2024-03-02T10:57:49.142Z,29.15
2024-03-02T11:00:20.872Z,25.95
2024-03-02T11:02:54.232Z,28.20
2024-03-02T11:05:30.965Z,26.13
2024-03-02T11:08:05.431Z,26.25
2024-03-02T11:10:39.406Z,25.73
2024-03-02T11:13:11.627Z,24.83
2024-03-02T11:15:45.288Z,25.42
2024-03-02T11:18:15.361Z,26.10
2024-03-02T11:20:45.793Z,24.92
2024-03-02T11:23:17.862Z,25.77
2024-03-02T11:25:48.831Z,29.25
2024-03-02T11:28:18.496Z,36.83
2024-03-02T11:30:57.302Z,23.13
2024-03-02T11:33:31.043Z,36.22
2024-03-02T11:36:01.455Z,29.05
2024-03-02T11:38:36.787Z,24.55
2024-03-02T11:41:10.285Z,23.42
2024-03-02T11:43:45.693Z,26.10
2024-03-02T11:46:15.078Z,23.75
2024-03-02T11:48:45.087Z,32.80
2024-03-02T11:51:15.796Z,24.02
2024-03-02T11:53:49.794Z,28.25
2024-03-02T11:56:21.249Z,26.13
2024-03-02T11:58:53.844Z,25.75
2024-03-02T12:01:23.745Z,24.35
2024-03-02T12:03:56.445Z,26.52
2024-03-02T12:06:26.691Z,23.98
2024-03-02T12:08:57.459Z,24.70
2024-03-02T12:11:26.827Z,23.80
2024-03-02T12:13:57.464Z,27.15
2024-03-02T12:16:28.471Z,27.05
2024-03-02T12:18:58.332Z,27.55
2024-03-02T12:21:28.677Z,23.73
2024-03-02T12:24:00.871Z,28.20
2024-03-02T12:26:30.676Z,31.97
2024-03-02T12:29:00.970Z,27.88
2024-03-02T12:31:30.645Z,24.35
2024-03-02T12:34:01.032Z,25.00
2024-03-02T12:36:30.643Z,26.02
2024-03-02T12:39:01.450Z,26.23
2024-03-02T12:41:32.717Z,24.92
2024-03-02T12:44:02.108Z,26.15
2024-03-02T12:46:31.420Z,28.75
2024-03-02T12:49:02.883Z,23.65
2024-03-02T12:51:32.367Z,28.02
2024-03-02T12:54:03.707Z,24.48
2024-03-02T12:56:33.024Z,25.40
2024-03-02T12:59:02.498Z,23.67
2024-03-02T13:01:32.487Z,24.17
2024-03-02T13:04:02.291Z,25.58
2024-03-02T13:06:31.866Z,23.80
2024-03-02T13:09:05.658Z,24.20
2024-03-02T13:11:35.127Z,21.17
2024-03-02T13:14:04.530Z,23.88
2024-03-02T13:16:40.687Z,25.17
2024-03-02T13:19:16.128Z,23.50
2024-03-02T13:21:45.370Z,23.20
2024-03-02T13:24:16.408Z,23.40
2024-03-02T13:26:45.679Z,24.85
2024-03-02T13:29:15.018Z,24.02
2024-03-02T13:31:44.399Z,22.60
2024-03-02T13:34:13.891Z,24.33
2024-03-02T13:36:43.249Z,25.15
2024-03-02T13:39:12.532Z,33.70
2024-03-02T13:41:43.276Z,26.15
2024-03-02T13:44:12.557Z,24.48
2024-03-02T13:46:41.795Z,25.88
2024-03-02T13:49:11.187Z,24.15
2024-03-02T13:51:41.712Z,25.08
2024-03-02T13:54:12.655Z,25.63
2024-03-02T13:56:43.651Z,23.73
2024-03-02T13:59:12.847Z,22.27
2024-03-02T14:01:42.291Z,25.02
2024-03-02T14:04:12.017Z,25.75
2024-03-02T14:06:41.487Z,26.48
2024-03-02T14:09:10.772Z,29.80
2024-03-02T14:11:42.653Z,26.92
2024-03-02T14:14:13.595Z,25.73
2024-03-02T14:16:42.874Z,41.78
2024-03-02T14:19:12.881Z,31.95
2024-03-02T14:21:42.472Z,28.55
2024-03-02T14:24:11.940Z,36.13
2024-03-02T14:26:42.268Z,31.60
2024-03-02T14:29:13.001Z,27.35
2024-03-02T14:31:43.057Z,27.05
2024-03-02T14:34:12.800Z,26.95
2024-03-02T14:36:42.667Z,27.95
2024-03-02T14:39:12.513Z,27.85
2024-03-02T14:41:42.365Z,25.30
2024-03-02T14:44:13.122Z,24.27
2024-03-02T14:46:44.390Z,22.52
2024-03-02T14:49:14.446Z,30.05
2024-03-02T14:51:44.059Z,27.17
2024-03-02T14:54:13.457Z,27.23
2024-03-02T14:56:42.853Z,25.75
2024-03-02T14:59:13.866Z,28.92
2024-03-02T15:01:43.320Z,23.90
2024-03-02T15:04:12.939Z,25.40
2024-03-02T15:06:42.221Z,23.70
2024-03-02T15:09:11.703Z,29.80
2024-03-02T15:11:41.402Z,25.73
2024-03-02T15:14:10.919Z,32.67
2024-03-02T15:16:41.723Z,26.40
2024-03-02T15:19:11.218Z,25.65
2024-03-02T15:21:41.079Z,32.50
2024-03-02T15:24:11.065Z,27.52
2024-03-02T15:26:41.321Z,27.20
2024-03-02T15:29:13.294Z,23.67
2024-03-02T15:31:44.085Z,25.95
2024-03-02T15:34:13.525Z,25.10
2024-03-02T15:36:42.773Z,23.73
2024-03-02T15:39:12.427Z,23.25
2024-03-02T15:41:43.167Z,21.95
2024-03-02T15:44:12.425Z,23.48
2024-03-02T15:46:42.163Z,23.50
2024-03-02T15:49:12.901Z,23.48
2024-03-02T15:51:45.587Z,22.88
2024-03-02T15:54:14.961Z,23.38
2024-03-02T15:56:44.619Z,21.70
2024-03-02T15:59:19.188Z,21.73
2024-03-02T16:01:49.438Z,22.17
2024-03-02T16:04:20.829Z,22.75
2024-03-02T16:06:50.474Z,21.95
2024-03-02T16:09:20.030Z,22.80
2024-03-02T16:11:50.422Z,26.27
2024-03-02T16:14:19.920Z,27.92
2024-03-02T16:16:49.400Z,25.63
2024-03-02T16:19:29.362Z,26.38
2024-03-02T16:22:08.123Z,34.35
2024-03-02T16:24:37.596Z,54.80
2024-03-02T16:27:07.273Z,110.03
2024-03-02T16:29:36.762Z,66.28
2024-03-02T16:32:06.573Z,48.10
2024-03-02T16:34:39.701Z,32.17
2024-03-02T16:37:09.537Z,46.05
2024-03-02T16:39:38.862Z,61.00
2024-03-02T16:42:08.969Z,57.40
2024-03-02T16:44:38.624Z,55.55
2024-03-02T16:47:08.092Z,45.92
2024-03-02T16:49:38.815Z,44.25
2024-03-02T16:52:08.491Z,38.67
2024-03-02T16:54:37.870Z,34.10
2024-03-02T16:57:07.445Z,31.33
2024-03-02T16:59:36.833Z,37.65
2024-03-02T17:02:06.746Z,45.38
2024-03-02T17:04:37.654Z,42.65
2024-03-02T17:07:07.784Z,43.28
2024-03-02T17:09:37.440Z,46.95
2024-03-02T17:12:07.455Z,31.10
2024-03-02T17:14:36.971Z,40.65
2024-03-02T17:17:06.707Z,46.60
2024-03-02T17:19:37.843Z,37.72
2024-03-02T17:22:07.728Z,35.22
2024-03-02T17:24:37.741Z,30.48
2024-03-02T17:27:07.416Z,30.15
2024-03-02T17:29:36.523Z,35.63
2024-03-02T17:32:05.969Z,33.50
2024-03-02T17:34:35.109Z,33.80
2024-03-02T17:37:05.999Z,31.40
2024-03-02T17:39:35.167Z,43.42
2024-03-02T17:42:04.297Z,51.92
2024-03-02T17:44:33.423Z,49.03
2024-03-02T17:47:02.610Z,50.20
2024-03-02T17:49:31.960Z,41.72
2024-03-02T17:52:01.291Z,59.45
2024-03-02T17:54:32.711Z,104.85
2024-03-02T17:57:02.285Z,109.95
2024-03-02T17:59:31.994Z,85.97
2024-03-02T18:02:02.738Z,193.40
2024-03-02T18:04:32.602Z,108.15
2024-03-02T18:07:02.024Z,108.63
2024-03-02T18:09:32.897Z,98.88
2024-03-02T18:12:04.615Z,87.18
2024-03-02T18:14:35.931Z,78.88
2024-03-02T18:17:06.896Z,76.53
2024-03-02T18:19:36.455Z,61.78
2024-03-02T18:22:05.825Z,59.25
2024-03-02T18:24:38.009Z,57.30
2024-03-02T18:27:08.376Z,58.58
2024-03-02T18:29:37.729Z,52.30
2024-03-02T18:32:09.880Z,43.60
2024-03-02T18:34:41.393Z,45.13
2024-03-02T18:37:11.678Z,46.97
2024-03-02T18:39:49.991Z,47.72
2024-03-02T18:42:19.749Z,66.07
2024-03-02T18:44:51.359Z,53.47
2024-03-02T18:47:20.663Z,43.95
2024-03-02T18:49:50.001Z,39.63
2024-03-02T18:52:19.450Z,48.08
2024-03-02T18:54:50.597Z,51.33
2024-03-02T18:57:19.979Z,52.45
2024-03-02T18:59:49.268Z,55.92
2024-03-02T19:02:18.747Z,54.00
2024-03-02T19:04:48.637Z,55.10
2024-03-02T19:07:18.149Z,69.22
2024-03-02T19:09:47.877Z,62.38
2024-03-02T19:12:19.006Z,54.90
2024-03-02T19:14:48.204Z,55.80
2024-03-02T19:17:17.443Z,57.90
2024-03-02T19:19:46.798Z,49.78
2024-03-02T19:22:16.184Z,47.30
2024-03-02T19:24:45.898Z,52.38
2024-03-02T19:27:15.260Z,49.83
2024-03-02T19:29:46.387Z,54.00
2024-03-02T19:32:21.118Z,59.70
2024-03-02T19:34:51.172Z,62.60
2024-03-02T19:37:20.502Z,51.13
2024-03-02T19:39:49.855Z,50.92
2024-03-02T19:42:19.353Z,54.17
2024-03-02T19:44:50.100Z,53.60
2024-03-02T19:47:20.831Z,56.83
2024-03-02T19:49:50.270Z,52.75
2024-03-02T19:52:19.731Z,46.30
2024-03-02T19:54:49.910Z,48.13
2024-03-02T19:57:19.516Z,55.10
2024-03-02T19:59:50.195Z,46.30
2024-03-02T20:02:21.488Z,49.40
2024-03-02T20:04:50.711Z,55.88
2024-03-02T20:07:20.205Z,51.63
2024-03-02T20:09:50.435Z,50.05
2024-03-02T20:12:19.969Z,50.47
2024-03-02T20:14:50.866Z,41.67
2024-03-02T20:17:20.129Z,39.42
2024-03-02T20:19:49.371Z,45.80
2024-03-02T20:22:18.785Z,44.85
2024-03-02T20:24:50.553Z,49.55
2024-03-02T20:27:20.916Z,47.58
2024-03-02T20:29:51.612Z,40.30
2024-03-02T20:32:21.293Z,34.45
2024-03-02T20:34:50.632Z,34.60
2024-03-02T20:37:25.117Z,36.10
2024-03-02T20:39:56.175Z,40.33
2024-03-02T20:42:29.812Z,42.70
2024-03-02T20:45:02.776Z,35.45
2024-03-02T20:47:32.815Z,32.20
2024-03-02T20:50:02.068Z,43.67
2024-03-02T20:52:31.719Z,35.75
2024-03-02T20:55:01.165Z,35.55
2024-03-02T20:57:31.126Z,46.65
2024-03-02T21:00:02.090Z,32.72
2024-03-02T21:02:31.642Z,36.83
2024-03-02T21:05:01.120Z,34.53
2024-03-02T21:07:30.402Z,29.38
2024-03-02T21:09:59.681Z,28.13
2024-03-02T21:12:29.087Z,30.27
2024-03-02T21:14:58.680Z,33.13
2024-03-02T21:17:30.279Z,40.30
2024-03-02T21:19:59.495Z,36.40
2024-03-02T21:22:28.738Z,36.45
2024-03-02T21:25:02.172Z,27.17
2024-03-02T21:27:32.099Z,29.77
2024-03-02T21:30:02.354Z,36.15
2024-03-02T21:32:34.982Z,35.17
2024-03-02T21:35:04.492Z,38.28
2024-03-02T21:37:33.746Z,45.50
2024-03-02T21:40:12.685Z,46.30
2024-03-02T21:42:42.257Z,45.85
2024-03-02T21:45:11.686Z,41.60
2024-03-02T21:47:42.450Z,44.75
2024-03-02T21:50:13.078Z,32.83
2024-03-02T21:52:42.598Z,31.27
2024-03-02T21:55:12.372Z,29.20
2024-03-02T21:57:55.338Z,34.53
2024-03-02T22:00:25.434Z,32.58
2024-03-02T22:02:59.333Z,32.05
2024-03-02T22:05:30.104Z,31.13
2024-03-02T22:07:59.419Z,33.03
2024-03-02T22:10:30.814Z,60.47
2024-03-02T22:13:01.083Z,29.05
2024-03-02T22:15:30.493Z,31.80
2024-03-02T22:18:04.407Z,33.90
2024-03-02T22:20:33.963Z,35.70
2024-03-02T22:23:03.172Z,33.33
2024-03-02T22:25:32.514Z,29.55
2024-03-02T22:28:01.773Z,29.42
2024-03-02T22:30:32.774Z,26.75
2024-03-02T22:33:06.730Z,28.90
2024-03-02T22:35:36.093Z,31.02
2024-03-02T22:38:05.457Z,30.27
2024-03-02T22:40:34.740Z,26.70
2024-03-02T22:43:04.091Z,24.77
2024-03-02T22:45:33.961Z,23.55
2024-03-02T22:48:04.632Z,23.88
2024-03-02T22:50:35.459Z,22.23
2024-03-02T22:53:17.609Z,23.13
2024-03-02T22:55:46.948Z,21.35
2024-03-02T22:58:16.415Z,21.30
2024-03-02T23:00:50.173Z,23.02
2024-03-02T23:03:19.601Z,20.80
2024-03-02T23:05:50.380Z,19.52
2024-03-02T23:08:19.514Z,18.95
2024-03-02T23:10:48.846Z,17.85
2024-03-02T23:13:18.975Z,17.77
2024-03-02T23:15:48.290Z,24.75
2024-03-02T23:18:17.581Z,20.33
2024-03-02T23:20:46.879Z,21.00
2024-03-02T23:23:17.583Z,20.42
2024-03-02T23:25:47.935Z,22.98
2024-03-02T23:28:17.865Z,19.17
2024-03-02T23:30:47.110Z,27.58
2024-03-02T23:33:16.520Z,37.42
2024-03-02T23:35:45.871Z,38.00
2024-03-02T23:38:16.466Z,36.90
2024-03-02T23:41:02.450Z,40.50
2024-03-02T23:43:32.057Z,43.00
2024-03-02T23:46:01.352Z,36.83
2024-03-02T23:48:30.897Z,50.20
2024-03-02T23:51:00.062Z,37.55
2024-03-02T23:53:31.554Z,40.25
2024-03-02T23:56:10.525Z,30.50
2024-03-02T23:58:39.829Z,34.92
